sensor_id;sensor_type;location;lat;lon;timestamp;temperature;humidity
16271;DHT22;8243;49.048;8.396;2023-07-30T00:01:11;18.00;99.90
16271;DHT22;8243;49.048;8.396;2023-07-30T00:03:37;18.00;99.90
16271;DHT22;8243;49.048;8.396;2023-07-30T00:06:02;18.00;99.90
16271;DHT22;8243;49.048;8.396;2023-07-30T00:08:28;18.00;99.90
16271;DHT22;8243;49.048;8.396;2023-07-30T00:10:56;18.10;99.90
16271;DHT22;8243;49.048;8.396;2023-07-30T00:13:22;18.10;99.90
16271;DHT22;8243;49.048;8.396;2023-07-30T00:15:48;18.10;99.90
16271;DHT22;8243;49.048;8.396;2023-07-30T00:18:14;18.10;99.90
16271;DHT22;8243;49.048;8.396;2023-07-30T00:20:41;18.10;99.90
16271;DHT22;8243;49.048;8.396;2023-07-30T00:23:06;18.10;99.90
16271;DHT22;8243;49.048;8.396;2023-07-30T00:25:32;18.10;99.90
16271;DHT22;8243;49.048;8.396;2023-07-30T00:27:58;18.10;99.90
16271;DHT22;8243;49.048;8.396;2023-07-30T00:30:23;18.10;99.90
16271;DHT22;8243;49.048;8.396;2023-07-30T00:32:49;18.00;99.90
16271;DHT22;8243;49.048;8.396;2023-07-30T00:35:14;18.00;99.90
16271;DHT22;8243;49.048;8.396;2023-07-30T00:37:40;18.00;99.90
16271;DHT22;8243;49.048;8.396;2023-07-30T00:40:06;18.00;99.90
16271;DHT22;8243;49.048;8.396;2023-07-30T00:42:32;18.10;99.90
16271;DHT22;8243;49.048;8.396;2023-07-30T00:44:57;18.10;99.90
16271;DHT22;8243;49.048;8.396;2023-07-30T00:47:23;18.10;99.90
16271;DHT22;8243;49.048;8.396;2023-07-30T00:49:49;18.20;99.90
16271;DHT22;8243;49.048;8.396;2023-07-30T00:52:20;18.20;99.90
16271;DHT22;8243;49.048;8.396;2023-07-30T00:54:48;18.20;99.90
16271;DHT22;8243;49.048;8.396;2023-07-30T00:57:15;18.30;99.90
16271;DHT22;8243;49.048;8.396;2023-07-30T00:59:41;18.30;99.90
16271;DHT22;8243;49.048;8.396;2023-07-30T01:02:07;18.30;99.90
16271;DHT22;8243;49.048;8.396;2023-07-30T01:04:32;18.30;99.90
16271;DHT22;8243;49.048;8.396;2023-07-30T01:06:58;18.40;99.90
16271;DHT22;8243;49.048;8.396;2023-07-30T01:09:24;18.40;99.90
16271;DHT22;8243;49.048;8.396;2023-07-30T01:11:51;18.40;99.90
16271;DHT22;8243;49.048;8.396;2023-07-30T01:14:18;18.40;99.90
16271;DHT22;8243;49.048;8.396;2023-07-30T01:16:45;18.40;99.90
16271;DHT22;8243;49.048;8.396;2023-07-30T01:19:11;18.50;99.90
16271;DHT22;8243;49.048;8.396;2023-07-30T01:21:37;18.50;99.90
16271;DHT22;8243;49.048;8.396;2023-07-30T01:24:03;18.50;99.90
16271;DHT22;8243;49.048;8.396;2023-07-30T01:26:56;18.50;99.90
16271;DHT22;8243;49.048;8.396;2023-07-30T01:29:53;18.60;99.90
16271;DHT22;8243;49.048;8.396;2023-07-30T01:32:25;18.60;99.90
16271;DHT22;8243;49.048;8.396;2023-07-30T01:35:12;18.60;99.90
16271;DHT22;8243;49.048;8.396;2023-07-30T01:37:39;18.60;99.90
16271;DHT22;8243;49.048;8.396;2023-07-30T01:40:07;18.50;99.90
16271;DHT22;8243;49.048;8.396;2023-07-30T01:42:33;18.50;99.90
16271;DHT22;8243;49.048;8.396;2023-07-30T01:44:58;18.50;99.90
16271;DHT22;8243;49.048;8.396;2023-07-30T01:47:24;18.50;99.90
16271;DHT22;8243;49.048;8.396;2023-07-30T01:49:49;18.50;99.90
16271;DHT22;8243;49.048;8.396;2023-07-30T01:52:15;18.50;99.90
16271;DHT22;8243;49.048;8.396;2023-07-30T01:54:41;18.50;99.90
16271;DHT22;8243;49.048;8.396;2023-07-30T01:57:07;18.40;99.90
16271;DHT22;8243;49.048;8.396;2023-07-30T01:59:33;18.40;99.90
16271;DHT22;8243;49.048;8.396;2023-07-30T02:01:58;18.40;99.90
16271;DHT22;8243;49.048;8.396;2023-07-30T02:04:24;18.40;99.90
16271;DHT22;8243;49.048;8.396;2023-07-30T02:06:49;18.30;99.90
16271;DHT22;8243;49.048;8.396;2023-07-30T02:09:15;18.30;99.90
16271;DHT22;8243;49.048;8.396;2023-07-30T02:11:40;18.20;99.90
16271;DHT22;8243;49.048;8.396;2023-07-30T02:14:06;18.20;99.90
16271;DHT22;8243;49.048;8.396;2023-07-30T02:16:32;18.20;99.90
16271;DHT22;8243;49.048;8.396;2023-07-30T02:18:57;18.10;99.90
16271;DHT22;8243;49.048;8.396;2023-07-30T02:21:23;18.10;99.90
16271;DHT22;8243;49.048;8.396;2023-07-30T02:23:48;18.10;99.90
16271;DHT22;8243;49.048;8.396;2023-07-30T02:26:14;18.10;99.90
16271;DHT22;8243;49.048;8.396;2023-07-30T02:28:39;18.10;99.90
16271;DHT22;8243;49.048;8.396;2023-07-30T02:31:05;18.20;99.90
16271;DHT22;8243;49.048;8.396;2023-07-30T02:33:30;18.20;99.90
16271;DHT22;8243;49.048;8.396;2023-07-30T02:35:56;18.20;99.90
16271;DHT22;8243;49.048;8.396;2023-07-30T02:38:21;18.30;99.90
16271;DHT22;8243;49.048;8.396;2023-07-30T02:40:47;18.30;99.90
16271;DHT22;8243;49.048;8.396;2023-07-30T02:43:12;18.30;99.90
16271;DHT22;8243;49.048;8.396;2023-07-30T02:45:38;18.30;99.90
16271;DHT22;8243;49.048;8.396;2023-07-30T02:48:04;18.20;99.90
16271;DHT22;8243;49.048;8.396;2023-07-30T02:50:29;18.20;99.90
16271;DHT22;8243;49.048;8.396;2023-07-30T02:52:55;18.20;99.90
16271;DHT22;8243;49.048;8.396;2023-07-30T02:55:21;18.20;99.90
16271;DHT22;8243;49.048;8.396;2023-07-30T02:57:46;18.20;99.90
16271;DHT22;8243;49.048;8.396;2023-07-30T03:00:12;18.30;99.90
16271;DHT22;8243;49.048;8.396;2023-07-30T03:02:38;18.30;99.90
16271;DHT22;8243;49.048;8.396;2023-07-30T03:05:03;18.30;99.90
16271;DHT22;8243;49.048;8.396;2023-07-30T03:07:29;18.30;99.90
16271;DHT22;8243;49.048;8.396;2023-07-30T03:09:54;18.30;99.90
16271;DHT22;8243;49.048;8.396;2023-07-30T03:12:20;18.30;99.90
16271;DHT22;8243;49.048;8.396;2023-07-30T03:14:46;18.40;99.90
16271;DHT22;8243;49.048;8.396;2023-07-30T03:17:11;18.40;99.90
16271;DHT22;8243;49.048;8.396;2023-07-30T03:19:37;18.40;99.90
16271;DHT22;8243;49.048;8.396;2023-07-30T03:22:02;18.40;99.90
16271;DHT22;8243;49.048;8.396;2023-07-30T03:24:28;18.50;99.90
16271;DHT22;8243;49.048;8.396;2023-07-30T03:26:53;18.50;99.90
16271;DHT22;8243;49.048;8.396;2023-07-30T03:29:19;18.50;99.90
16271;DHT22;8243;49.048;8.396;2023-07-30T03:31:44;18.50;99.90
16271;DHT22;8243;49.048;8.396;2023-07-30T03:34:10;18.50;99.90
16271;DHT22;8243;49.048;8.396;2023-07-30T03:36:35;18.50;99.90
16271;DHT22;8243;49.048;8.396;2023-07-30T03:39:01;18.50;99.90
16271;DHT22;8243;49.048;8.396;2023-07-30T03:41:26;18.60;99.90
16271;DHT22;8243;49.048;8.396;2023-07-30T03:43:52;18.50;99.90
16271;DHT22;8243;49.048;8.396;2023-07-30T03:46:18;18.60;99.90
16271;DHT22;8243;49.048;8.396;2023-07-30T03:48:43;18.50;99.90
16271;DHT22;8243;49.048;8.396;2023-07-30T03:51:09;18.50;99.90
16271;DHT22;8243;49.048;8.396;2023-07-30T03:53:34;18.50;99.90
16271;DHT22;8243;49.048;8.396;2023-07-30T03:56:00;18.50;99.90
16271;DHT22;8243;49.048;8.396;2023-07-30T03:58:26;18.50;99.90
16271;DHT22;8243;49.048;8.396;2023-07-30T04:00:52;18.50;99.90
16271;DHT22;8243;49.048;8.396;2023-07-30T04:03:17;18.60;99.90
16271;DHT22;8243;49.048;8.396;2023-07-30T04:05:43;18.60;99.90
16271;DHT22;8243;49.048;8.396;2023-07-30T04:08:08;18.50;99.90
16271;DHT22;8243;49.048;8.396;2023-07-30T04:10:34;18.50;99.90
16271;DHT22;8243;49.048;8.396;2023-07-30T04:12:59;18.50;99.90
16271;DHT22;8243;49.048;8.396;2023-07-30T04:15:25;18.60;99.90
16271;DHT22;8243;49.048;8.396;2023-07-30T04:17:51;18.50;99.90
16271;DHT22;8243;49.048;8.396;2023-07-30T04:20:16;18.50;99.90
16271;DHT22;8243;49.048;8.396;2023-07-30T04:22:43;18.50;99.90
16271;DHT22;8243;49.048;8.396;2023-07-30T04:25:09;18.50;99.90
16271;DHT22;8243;49.048;8.396;2023-07-30T04:27:36;18.50;99.90
16271;DHT22;8243;49.048;8.396;2023-07-30T04:30:02;18.40;99.90
16271;DHT22;8243;49.048;8.396;2023-07-30T04:32:27;18.40;99.90
16271;DHT22;8243;49.048;8.396;2023-07-30T04:34:53;18.30;99.90
16271;DHT22;8243;49.048;8.396;2023-07-30T04:37:18;18.30;99.90
16271;DHT22;8243;49.048;8.396;2023-07-30T04:39:44;18.20;99.90
16271;DHT22;8243;49.048;8.396;2023-07-30T04:42:09;18.20;99.90
16271;DHT22;8243;49.048;8.396;2023-07-30T04:44:35;18.20;99.90
16271;DHT22;8243;49.048;8.396;2023-07-30T04:47:00;18.10;99.90
16271;DHT22;8243;49.048;8.396;2023-07-30T04:49:26;18.10;99.90
16271;DHT22;8243;49.048;8.396;2023-07-30T04:51:52;18.10;99.90
16271;DHT22;8243;49.048;8.396;2023-07-30T04:54:17;18.20;99.90
16271;DHT22;8243;49.048;8.396;2023-07-30T04:56:43;18.10;99.90
16271;DHT22;8243;49.048;8.396;2023-07-30T04:59:08;18.10;99.90
16271;DHT22;8243;49.048;8.396;2023-07-30T05:01:34;18.10;99.90
16271;DHT22;8243;49.048;8.396;2023-07-30T05:03:59;18.10;99.90
16271;DHT22;8243;49.048;8.396;2023-07-30T05:06:25;18.10;99.90
16271;DHT22;8243;49.048;8.396;2023-07-30T05:08:50;18.20;99.90
16271;DHT22;8243;49.048;8.396;2023-07-30T05:11:16;18.20;99.90
16271;DHT22;8243;49.048;8.396;2023-07-30T05:13:41;18.20;99.90
16271;DHT22;8243;49.048;8.396;2023-07-30T05:16:07;18.20;99.90
16271;DHT22;8243;49.048;8.396;2023-07-30T05:18:33;18.30;99.90
16271;DHT22;8243;49.048;8.396;2023-07-30T05:20:58;18.40;99.90
16271;DHT22;8243;49.048;8.396;2023-07-30T05:23:24;18.50;99.90
16271;DHT22;8243;49.048;8.396;2023-07-30T05:25:49;18.70;99.90
16271;DHT22;8243;49.048;8.396;2023-07-30T05:28:15;19.30;99.90
16271;DHT22;8243;49.048;8.396;2023-07-30T05:30:40;19.20;99.90
16271;DHT22;8243;49.048;8.396;2023-07-30T05:33:06;19.20;99.90
16271;DHT22;8243;49.048;8.396;2023-07-30T05:35:31;19.60;99.90
16271;DHT22;8243;49.048;8.396;2023-07-30T05:37:57;21.00;99.90
16271;DHT22;8243;49.048;8.396;2023-07-30T05:40:26;22.20;99.90
16271;DHT22;8243;49.048;8.396;2023-07-30T05:42:51;22.90;99.90
16271;DHT22;8243;49.048;8.396;2023-07-30T05:45:17;22.70;99.90
16271;DHT22;8243;49.048;8.396;2023-07-30T05:47:42;21.80;99.90
16271;DHT22;8243;49.048;8.396;2023-07-30T05:50:08;21.30;99.90
16271;DHT22;8243;49.048;8.396;2023-07-30T05:52:34;20.90;99.90
16271;DHT22;8243;49.048;8.396;2023-07-30T05:55:00;20.70;99.90
16271;DHT22;8243;49.048;8.396;2023-07-30T05:57:25;20.60;99.90
16271;DHT22;8243;49.048;8.396;2023-07-30T05:59:51;20.60;99.90
16271;DHT22;8243;49.048;8.396;2023-07-30T06:02:17;20.70;99.90
16271;DHT22;8243;49.048;8.396;2023-07-30T06:04:43;20.80;99.90
16271;DHT22;8243;49.048;8.396;2023-07-30T06:07:09;20.90;99.90
16271;DHT22;8243;49.048;8.396;2023-07-30T06:09:34;20.80;99.90
16271;DHT22;8243;49.048;8.396;2023-07-30T06:12:00;20.90;99.90
16271;DHT22;8243;49.048;8.396;2023-07-30T06:14:26;21.10;99.90
16271;DHT22;8243;49.048;8.396;2023-07-30T06:16:52;21.40;99.90
16271;DHT22;8243;49.048;8.396;2023-07-30T06:19:18;21.40;99.90
16271;DHT22;8243;49.048;8.396;2023-07-30T06:21:44;21.20;99.90
16271;DHT22;8243;49.048;8.396;2023-07-30T06:24:09;21.00;99.90
16271;DHT22;8243;49.048;8.396;2023-07-30T06:26:35;20.80;99.90
16271;DHT22;8243;49.048;8.396;2023-07-30T06:29:01;20.60;99.90
16271;DHT22;8243;49.048;8.396;2023-07-30T06:31:26;20.40;99.90
16271;DHT22;8243;49.048;8.396;2023-07-30T06:33:52;20.10;99.90
16271;DHT22;8243;49.048;8.396;2023-07-30T06:36:17;19.80;99.90
16271;DHT22;8243;49.048;8.396;2023-07-30T06:38:43;19.50;99.90
16271;DHT22;8243;49.048;8.396;2023-07-30T06:41:08;19.20;99.90
16271;DHT22;8243;49.048;8.396;2023-07-30T06:43:34;19.10;99.90
16271;DHT22;8243;49.048;8.396;2023-07-30T06:46:00;19.00;99.90
16271;DHT22;8243;49.048;8.396;2023-07-30T06:48:25;19.00;99.90
16271;DHT22;8243;49.048;8.396;2023-07-30T06:50:51;18.90;99.90
16271;DHT22;8243;49.048;8.396;2023-07-30T06:53:16;18.80;99.90
16271;DHT22;8243;49.048;8.396;2023-07-30T06:55:42;18.90;99.90
16271;DHT22;8243;49.048;8.396;2023-07-30T06:58:13;19.00;99.90
16271;DHT22;8243;49.048;8.396;2023-07-30T07:00:39;19.00;99.90
16271;DHT22;8243;49.048;8.396;2023-07-30T07:03:05;19.10;99.90
16271;DHT22;8243;49.048;8.396;2023-07-30T07:05:30;19.20;99.90
16271;DHT22;8243;49.048;8.396;2023-07-30T07:07:56;19.30;99.90
16271;DHT22;8243;49.048;8.396;2023-07-30T07:10:22;19.20;99.90
16271;DHT22;8243;49.048;8.396;2023-07-30T07:12:47;19.30;99.90
16271;DHT22;8243;49.048;8.396;2023-07-30T07:15:13;19.40;99.90
16271;DHT22;8243;49.048;8.396;2023-07-30T07:17:39;19.30;99.90
16271;DHT22;8243;49.048;8.396;2023-07-30T07:20:06;19.40;99.90
16271;DHT22;8243;49.048;8.396;2023-07-30T07:22:33;19.40;99.90
16271;DHT22;8243;49.048;8.396;2023-07-30T07:25:08;19.40;99.90
16271;DHT22;8243;49.048;8.396;2023-07-30T07:27:39;19.40;99.90
16271;DHT22;8243;49.048;8.396;2023-07-30T07:30:05;19.40;99.90
16271;DHT22;8243;49.048;8.396;2023-07-30T07:32:31;19.50;99.90
16271;DHT22;8243;49.048;8.396;2023-07-30T07:35:03;19.60;99.90
16271;DHT22;8243;49.048;8.396;2023-07-30T07:37:28;19.80;99.90
16271;DHT22;8243;49.048;8.396;2023-07-30T07:39:54;19.90;99.90
16271;DHT22;8243;49.048;8.396;2023-07-30T07:42:19;20.10;99.90
16271;DHT22;8243;49.048;8.396;2023-07-30T07:44:45;20.20;99.90
16271;DHT22;8243;49.048;8.396;2023-07-30T07:47:11;20.40;99.90
16271;DHT22;8243;49.048;8.396;2023-07-30T07:49:37;20.70;99.90
16271;DHT22;8243;49.048;8.396;2023-07-30T07:52:03;21.20;99.90
16271;DHT22;8243;49.048;8.396;2023-07-30T07:54:28;22.30;99.90
16271;DHT22;8243;49.048;8.396;2023-07-30T07:56:54;22.90;99.90
16271;DHT22;8243;49.048;8.396;2023-07-30T07:59:19;23.00;99.90
16271;DHT22;8243;49.048;8.396;2023-07-30T08:01:45;23.30;99.90
16271;DHT22;8243;49.048;8.396;2023-07-30T08:04:10;23.20;99.90
16271;DHT22;8243;49.048;8.396;2023-07-30T08:06:36;23.60;99.90
16271;DHT22;8243;49.048;8.396;2023-07-30T08:09:02;24.30;99.90
16271;DHT22;8243;49.048;8.396;2023-07-30T08:11:27;25.00;99.90
16271;DHT22;8243;49.048;8.396;2023-07-30T08:13:53;25.30;99.90
16271;DHT22;8243;49.048;8.396;2023-07-30T08:16:18;25.00;99.90
16271;DHT22;8243;49.048;8.396;2023-07-30T08:18:44;25.00;99.90
16271;DHT22;8243;49.048;8.396;2023-07-30T08:21:10;24.90;99.90
16271;DHT22;8243;49.048;8.396;2023-07-30T08:23:35;25.30;99.70
16271;DHT22;8243;49.048;8.396;2023-07-30T08:26:01;25.80;93.70
16271;DHT22;8243;49.048;8.396;2023-07-30T08:28:26;25.30;89.90
16271;DHT22;8243;49.048;8.396;2023-07-30T08:30:52;24.50;91.50
16271;DHT22;8243;49.048;8.396;2023-07-30T08:33:17;23.80;92.70
16271;DHT22;8243;49.048;8.396;2023-07-30T08:35:43;23.60;96.10
16271;DHT22;8243;49.048;8.396;2023-07-30T08:38:09;24.00;94.80
16271;DHT22;8243;49.048;8.396;2023-07-30T08:40:34;24.50;93.30
16271;DHT22;8243;49.048;8.396;2023-07-30T08:43:02;25.20;87.80
16271;DHT22;8243;49.048;8.396;2023-07-30T08:45:28;25.40;77.50
16271;DHT22;8243;49.048;8.396;2023-07-30T08:47:54;25.60;75.20
16271;DHT22;8243;49.048;8.396;2023-07-30T08:50:22;25.50;73.10
16271;DHT22;8243;49.048;8.396;2023-07-30T08:52:48;25.40;67.50
16271;DHT22;8243;49.048;8.396;2023-07-30T08:55:15;25.60;59.70
16271;DHT22;8243;49.048;8.396;2023-07-30T08:57:46;24.80;57.70
16271;DHT22;8243;49.048;8.396;2023-07-30T09:00:15;25.00;56.50
16271;DHT22;8243;49.048;8.396;2023-07-30T09:02:50;25.40;54.20
16271;DHT22;8243;49.048;8.396;2023-07-30T09:05:18;25.30;54.90
16271;DHT22;8243;49.048;8.396;2023-07-30T09:07:44;25.10;57.60
16271;DHT22;8243;49.048;8.396;2023-07-30T09:10:10;25.10;54.40
16271;DHT22;8243;49.048;8.396;2023-07-30T09:12:35;25.50;52.90
16271;DHT22;8243;49.048;8.396;2023-07-30T09:15:07;26.10;52.30
16271;DHT22;8243;49.048;8.396;2023-07-30T09:17:34;26.10;46.10
16271;DHT22;8243;49.048;8.396;2023-07-30T09:20:00;25.70;43.90
16271;DHT22;8243;49.048;8.396;2023-07-30T09:22:28;25.30;44.70
16271;DHT22;8243;49.048;8.396;2023-07-30T09:24:57;25.40;42.40
16271;DHT22;8243;49.048;8.396;2023-07-30T09:27:25;26.10;39.70
16271;DHT22;8243;49.048;8.396;2023-07-30T09:29:57;25.80;38.30
16271;DHT22;8243;49.048;8.396;2023-07-30T09:32:30;25.10;39.50
16271;DHT22;8243;49.048;8.396;2023-07-30T09:35:04;24.90;41.70
16271;DHT22;8243;49.048;8.396;2023-07-30T09:37:33;25.30;39.60
16271;DHT22;8243;49.048;8.396;2023-07-30T09:40:02;25.60;38.20
16271;DHT22;8243;49.048;8.396;2023-07-30T09:42:28;25.90;36.00
16271;DHT22;8243;49.048;8.396;2023-07-30T09:44:53;25.90;34.50
16271;DHT22;8243;49.048;8.396;2023-07-30T09:47:26;25.60;34.20
16271;DHT22;8243;49.048;8.396;2023-07-30T09:49:52;25.30;36.00
16271;DHT22;8243;49.048;8.396;2023-07-30T09:52:21;24.90;33.60
16271;DHT22;8243;49.048;8.396;2023-07-30T09:54:49;24.70;35.00
16271;DHT22;8243;49.048;8.396;2023-07-30T09:57:15;24.00;36.80
16271;DHT22;8243;49.048;8.396;2023-07-30T09:59:41;23.90;38.40
16271;DHT22;8243;49.048;8.396;2023-07-30T10:02:08;23.90;37.90
16271;DHT22;8243;49.048;8.396;2023-07-30T10:04:39;24.20;37.00
16271;DHT22;8243;49.048;8.396;2023-07-30T10:07:12;25.70;31.20
16271;DHT22;8243;49.048;8.396;2023-07-30T10:09:42;26.00;28.20
16271;DHT22;8243;49.048;8.396;2023-07-30T10:12:15;26.00;25.70
16271;DHT22;8243;49.048;8.396;2023-07-30T10:14:41;25.50;24.80
16271;DHT22;8243;49.048;8.396;2023-07-30T10:17:10;25.00;24.30
16271;DHT22;8243;49.048;8.396;2023-07-30T10:19:36;24.50;24.80
16271;DHT22;8243;49.048;8.396;2023-07-30T10:24:40;23.70;27.20
16271;DHT22;8243;49.048;8.396;2023-07-30T10:27:07;23.40;29.20
16271;DHT22;8243;49.048;8.396;2023-07-30T10:29:35;23.10;29.10
16271;DHT22;8243;49.048;8.396;2023-07-30T10:32:05;23.00;29.60
16271;DHT22;8243;49.048;8.396;2023-07-30T10:34:45;23.00;30.60
16271;DHT22;8243;49.048;8.396;2023-07-30T10:37:10;23.40;30.30
16271;DHT22;8243;49.048;8.396;2023-07-30T10:39:36;24.10;28.30
16271;DHT22;8243;49.048;8.396;2023-07-30T10:42:01;24.90;26.60
16271;DHT22;8243;49.048;8.396;2023-07-30T10:44:34;25.60;25.50
16271;DHT22;8243;49.048;8.396;2023-07-30T10:47:01;25.70;24.10
16271;DHT22;8243;49.048;8.396;2023-07-30T10:49:27;25.80;22.60
16271;DHT22;8243;49.048;8.396;2023-07-30T10:51:55;26.00;22.90
16271;DHT22;8243;49.048;8.396;2023-07-30T10:54:21;26.40;22.40
16271;DHT22;8243;49.048;8.396;2023-07-30T10:56:47;26.90;20.20
16271;DHT22;8243;49.048;8.396;2023-07-30T10:59:14;26.90;18.90
16271;DHT22;8243;49.048;8.396;2023-07-30T11:01:44;27.20;17.60
16271;DHT22;8243;49.048;8.396;2023-07-30T11:04:20;27.30;16.70
16271;DHT22;8243;49.048;8.396;2023-07-30T11:06:48;27.30;15.80
16271;DHT22;8243;49.048;8.396;2023-07-30T11:09:25;27.10;15.80
16271;DHT22;8243;49.048;8.396;2023-07-30T11:11:53;27.20;15.10
16271;DHT22;8243;49.048;8.396;2023-07-30T11:14:21;27.10;15.00
16271;DHT22;8243;49.048;8.396;2023-07-30T11:16:56;26.60;14.40
16271;DHT22;8243;49.048;8.396;2023-07-30T11:19:24;26.30;14.60
16271;DHT22;8243;49.048;8.396;2023-07-30T11:21:51;26.10;14.50
16271;DHT22;8243;49.048;8.396;2023-07-30T11:24:17;25.50;12.90
16271;DHT22;8243;49.048;8.396;2023-07-30T11:26:43;24.90;14.30
16271;DHT22;8243;49.048;8.396;2023-07-30T11:29:19;24.50;15.60
16271;DHT22;8243;49.048;8.396;2023-07-30T11:31:46;24.50;15.40
16271;DHT22;8243;49.048;8.396;2023-07-30T11:34:13;24.90;16.20
16271;DHT22;8243;49.048;8.396;2023-07-30T11:36:40;25.30;15.00
16271;DHT22;8243;49.048;8.396;2023-07-30T11:39:07;25.20;14.90
16271;DHT22;8243;49.048;8.396;2023-07-30T11:41:33;24.90;15.40
16271;DHT22;8243;49.048;8.396;2023-07-30T11:43:58;25.00;15.50
16271;DHT22;8243;49.048;8.396;2023-07-30T11:46:24;24.90;17.40
16271;DHT22;8243;49.048;8.396;2023-07-30T11:48:52;24.70;15.60
16271;DHT22;8243;49.048;8.396;2023-07-30T11:56:26;24.80;13.70
16271;DHT22;8243;49.048;8.396;2023-07-30T11:59:06;24.70;14.20
16271;DHT22;8243;49.048;8.396;2023-07-30T12:01:34;24.60;13.60
16271;DHT22;8243;49.048;8.396;2023-07-30T12:04:01;24.60;14.80
16271;DHT22;8243;49.048;8.396;2023-07-30T12:06:50;24.50;14.10
16271;DHT22;8243;49.048;8.396;2023-07-30T12:09:21;24.30;14.00
16271;DHT22;8243;49.048;8.396;2023-07-30T12:11:50;24.60;14.40
16271;DHT22;8243;49.048;8.396;2023-07-30T12:14:16;25.00;13.90
16271;DHT22;8243;49.048;8.396;2023-07-30T12:16:42;25.30;13.00
16271;DHT22;8243;49.048;8.396;2023-07-30T12:19:08;25.60;12.10
16271;DHT22;8243;49.048;8.396;2023-07-30T12:21:33;25.60;11.40
16271;DHT22;8243;49.048;8.396;2023-07-30T12:23:59;25.60;11.90
16271;DHT22;8243;49.048;8.396;2023-07-30T12:26:24;26.00;11.80
16271;DHT22;8243;49.048;8.396;2023-07-30T12:28:50;26.00;10.30
16271;DHT22;8243;49.048;8.396;2023-07-30T12:31:16;25.70;10.50
16271;DHT22;8243;49.048;8.396;2023-07-30T12:33:43;25.10;11.70
16271;DHT22;8243;49.048;8.396;2023-07-30T12:36:09;24.90;11.60
16271;DHT22;8243;49.048;8.396;2023-07-30T12:38:34;24.90;12.00
16271;DHT22;8243;49.048;8.396;2023-07-30T12:41:00;24.80;12.90
16271;DHT22;8243;49.048;8.396;2023-07-30T12:43:25;24.90;12.50
16271;DHT22;8243;49.048;8.396;2023-07-30T12:45:51;24.80;12.90
16271;DHT22;8243;49.048;8.396;2023-07-30T12:48:17;24.70;12.80
16271;DHT22;8243;49.048;8.396;2023-07-30T12:50:42;24.80;12.50
16271;DHT22;8243;49.048;8.396;2023-07-30T12:53:08;25.20;11.50
16271;DHT22;8243;49.048;8.396;2023-07-30T12:55:33;25.30;11.70
16271;DHT22;8243;49.048;8.396;2023-07-30T12:57:59;25.50;10.80
16271;DHT22;8243;49.048;8.396;2023-07-30T13:00:25;25.40;10.90
16271;DHT22;8243;49.048;8.396;2023-07-30T13:02:50;25.10;11.10
16271;DHT22;8243;49.048;8.396;2023-07-30T13:05:20;25.00;11.20
16271;DHT22;8243;49.048;8.396;2023-07-30T13:07:46;24.70;11.30
16271;DHT22;8243;49.048;8.396;2023-07-30T13:10:12;24.60;11.90
16271;DHT22;8243;49.048;8.396;2023-07-30T13:12:38;24.70;12.60
16271;DHT22;8243;49.048;8.396;2023-07-30T13:15:03;24.70;12.60
16271;DHT22;8243;49.048;8.396;2023-07-30T13:17:29;25.00;11.30
16271;DHT22;8243;49.048;8.396;2023-07-30T13:19:55;24.80;11.20
16271;DHT22;8243;49.048;8.396;2023-07-30T13:22:21;24.80;11.70
16271;DHT22;8243;49.048;8.396;2023-07-30T13:24:47;24.60;11.40
16271;DHT22;8243;49.048;8.396;2023-07-30T13:27:13;24.70;10.40
16271;DHT22;8243;49.048;8.396;2023-07-30T13:29:39;24.80;10.10
16271;DHT22;8243;49.048;8.396;2023-07-30T13:32:05;24.50;10.20
16271;DHT22;8243;49.048;8.396;2023-07-30T13:34:31;24.40;10.80
16271;DHT22;8243;49.048;8.396;2023-07-30T13:36:57;24.50;10.10
16271;DHT22;8243;49.048;8.396;2023-07-30T13:39:23;24.70;9.80
16271;DHT22;8243;49.048;8.396;2023-07-30T13:41:48;24.80;9.10
16271;DHT22;8243;49.048;8.396;2023-07-30T13:44:14;25.20;9.50
16271;DHT22;8243;49.048;8.396;2023-07-30T13:46:39;25.20;8.20
16271;DHT22;8243;49.048;8.396;2023-07-30T13:49:06;25.40;9.10
16271;DHT22;8243;49.048;8.396;2023-07-30T13:51:31;25.60;7.20
16271;DHT22;8243;49.048;8.396;2023-07-30T13:54:01;25.90;6.00
16271;DHT22;8243;49.048;8.396;2023-07-30T13:56:28;25.70;5.50
16271;DHT22;8243;49.048;8.396;2023-07-30T13:58:53;25.70;5.60
16271;DHT22;8243;49.048;8.396;2023-07-30T14:01:19;25.60;3.70
16271;DHT22;8243;49.048;8.396;2023-07-30T14:03:44;25.20;3.40
16271;DHT22;8243;49.048;8.396;2023-07-30T14:06:11;25.30;3.70
16271;DHT22;8243;49.048;8.396;2023-07-30T14:08:36;25.30;3.90
16271;DHT22;8243;49.048;8.396;2023-07-30T14:11:02;25.40;4.10
16271;DHT22;8243;49.048;8.396;2023-07-30T14:13:28;25.40;3.70
16271;DHT22;8243;49.048;8.396;2023-07-30T14:15:53;25.40;3.10
16271;DHT22;8243;49.048;8.396;2023-07-30T14:18:19;25.00;4.00
16271;DHT22;8243;49.048;8.396;2023-07-30T14:20:48;24.80;4.70
16271;DHT22;8243;49.048;8.396;2023-07-30T14:23:13;24.80;4.30
16271;DHT22;8243;49.048;8.396;2023-07-30T14:25:40;24.60;4.30
16271;DHT22;8243;49.048;8.396;2023-07-30T14:28:05;24.50;4.30
16271;DHT22;8243;49.048;8.396;2023-07-30T14:30:31;24.40;4.60
16271;DHT22;8243;49.048;8.396;2023-07-30T14:32:56;24.30;4.80
16271;DHT22;8243;49.048;8.396;2023-07-30T14:35:22;24.60;5.20
16271;DHT22;8243;49.048;8.396;2023-07-30T14:37:48;24.90;4.10
16271;DHT22;8243;49.048;8.396;2023-07-30T14:40:14;25.00;4.10
16271;DHT22;8243;49.048;8.396;2023-07-30T14:42:40;25.20;3.40
16271;DHT22;8243;49.048;8.396;2023-07-30T14:45:06;25.20;3.50
16271;DHT22;8243;49.048;8.396;2023-07-30T14:47:32;25.40;2.80
16271;DHT22;8243;49.048;8.396;2023-07-30T14:49:58;25.50;3.00
16271;DHT22;8243;49.048;8.396;2023-07-30T14:52:24;25.30;2.90
16271;DHT22;8243;49.048;8.396;2023-07-30T14:54:50;25.30;1.00
16271;DHT22;8243;49.048;8.396;2023-07-30T14:57:16;25.40;1.00
16271;DHT22;8243;49.048;8.396;2023-07-30T14:59:41;25.10;1.00
16271;DHT22;8243;49.048;8.396;2023-07-30T15:02:07;25.10;1.30
16271;DHT22;8243;49.048;8.396;2023-07-30T15:04:33;25.30;1.60
16271;DHT22;8243;49.048;8.396;2023-07-30T15:06:58;25.30;1.50
16271;DHT22;8243;49.048;8.396;2023-07-30T15:09:24;25.20;2.10
16271;DHT22;8243;49.048;8.396;2023-07-30T15:11:49;24.90;1.90
16271;DHT22;8243;49.048;8.396;2023-07-30T15:14:15;24.80;2.50
16271;DHT22;8243;49.048;8.396;2023-07-30T15:16:40;25.00;2.20
16271;DHT22;8243;49.048;8.396;2023-07-30T15:19:06;25.10;2.10
16271;DHT22;8243;49.048;8.396;2023-07-30T15:21:33;25.20;1.60
16271;DHT22;8243;49.048;8.396;2023-07-30T15:24:00;25.30;1.00
16271;DHT22;8243;49.048;8.396;2023-07-30T15:26:26;25.20;1.70
16271;DHT22;8243;49.048;8.396;2023-07-30T15:28:52;25.10;2.10
16271;DHT22;8243;49.048;8.396;2023-07-30T15:31:18;24.50;1.60
16271;DHT22;8243;49.048;8.396;2023-07-30T15:33:44;24.50;2.90
16271;DHT22;8243;49.048;8.396;2023-07-30T15:36:09;24.40;2.50
16271;DHT22;8243;49.048;8.396;2023-07-30T15:38:35;24.60;2.70
16271;DHT22;8243;49.048;8.396;2023-07-30T15:41:00;24.40;2.90
16271;DHT22;8243;49.048;8.396;2023-07-30T15:43:26;24.30;3.30
16271;DHT22;8243;49.048;8.396;2023-07-30T15:45:52;24.60;3.90
16271;DHT22;8243;49.048;8.396;2023-07-30T15:48:19;25.00;3.60
16271;DHT22;8243;49.048;8.396;2023-07-30T15:50:44;25.00;3.10